createdAt,value
2019-03-28T00:01:22.594Z,65.67
2019-03-28T00:03:27.087Z,63.00
2019-03-28T00:05:31.431Z,61.37
2019-03-28T00:07:36.059Z,68.10
2019-03-28T00:09:40.257Z,66.07
2019-03-28T00:11:44.465Z,65.57
2019-03-28T00:13:48.293Z,56.50
2019-03-28T00:15:52.504Z,65.62
2019-03-28T00:17:56.719Z,64.97
2019-03-28T00:20:04.522Z,62.30
2019-03-28T00:22:08.701Z,61.23
2019-03-28T00:24:16.855Z,63.85
2019-03-28T00:26:30.155Z,64.32
2019-03-28T00:28:26.989Z,63.15
2019-03-28T00:30:30.806Z,57.80
2019-03-28T00:32:34.635Z,60.20
2019-03-28T00:34:38.473Z,65.80
2019-03-28T00:36:42.615Z,65.20
2019-03-28T00:38:46.817Z,54.85
2019-03-28T00:40:50.935Z,57.15
2019-03-28T00:42:56.264Z,52.90
2019-03-28T00:45:02.213Z,60.17
2019-03-28T00:47:06.339Z,55.05
2019-03-28T00:49:10.145Z,51.68
2019-03-28T00:51:14.683Z,53.10
2019-03-28T00:53:18.867Z,46.92
2019-03-28T00:55:22.697Z,50.80
2019-03-28T00:57:26.533Z,49.27
2019-03-28T00:59:32.326Z,53.58
2019-03-28T01:01:36.235Z,48.87
2019-03-28T01:03:40.067Z,50.38
2019-03-28T01:05:44.239Z,53.78
2019-03-28T01:07:48.061Z,55.75
2019-03-28T01:09:52.285Z,62.65
2019-03-28T01:11:56.663Z,59.15
2019-03-28T01:14:00.505Z,51.68
2019-03-28T01:16:05.788Z,60.17
2019-03-28T01:18:09.928Z,69.92
2019-03-28T01:20:14.241Z,62.33
2019-03-28T01:22:18.067Z,59.98
2019-03-28T01:24:21.882Z,62.98
2019-03-28T01:26:25.756Z,57.38
2019-03-28T01:28:29.862Z,57.38
2019-03-28T01:30:34.075Z,59.67
2019-03-28T01:32:40.324Z,59.60
2019-03-28T01:34:44.476Z,51.18
2019-03-28T01:36:48.327Z,54.15
2019-03-28T01:38:52.707Z,61.45
2019-03-28T01:40:56.885Z,57.15
2019-03-28T01:43:00.979Z,59.05
2019-03-28T01:45:06.741Z,72.20
2019-03-28T01:47:10.941Z,61.80
2019-03-28T01:49:14.769Z,60.08
2019-03-28T01:51:18.642Z,59.90
2019-03-28T01:53:22.786Z,62.55
2019-03-28T01:55:30.248Z,63.45
2019-03-28T01:57:34.084Z,77.47
2019-03-28T01:59:38.382Z,68.37
2019-03-28T02:01:42.605Z,72.82
2019-03-28T02:03:46.431Z,72.47
2019-03-28T02:05:50.604Z,73.62
2019-03-28T02:07:58.451Z,65.67
2019-03-28T02:10:04.548Z,66.70
2019-03-28T02:12:08.388Z,77.80
2019-03-28T02:14:14.113Z,72.50
2019-03-28T02:16:18.247Z,69.55
2019-03-28T02:18:22.081Z,69.60
2019-03-28T02:20:26.242Z,74.70
2019-03-28T02:22:30.345Z,70.17
2019-03-28T02:24:34.551Z,75.32
2019-03-28T02:26:38.381Z,80.38
2019-03-28T02:28:42.577Z,74.15
2019-03-28T02:30:46.677Z,69.95
2019-03-28T02:32:50.525Z,70.40
2019-03-28T02:34:54.706Z,67.60
2019-03-28T02:36:58.547Z,69.17
2019-03-28T02:39:02.736Z,76.57
2019-03-28T02:41:06.928Z,55.45
2019-03-28T02:43:11.057Z,64.50
2019-03-28T02:45:15.253Z,62.98
2019-03-28T02:47:19.076Z,69.65
2019-03-28T02:49:23.192Z,55.63
2019-03-28T02:51:27.375Z,57.03
2019-03-28T02:53:31.493Z,55.60
2019-03-28T02:55:36.441Z,54.23
2019-03-28T02:57:42.333Z,54.13
2019-03-28T02:59:46.072Z,60.48
2019-03-28T03:01:50.284Z,59.30
2019-03-28T03:03:54.397Z,61.10
2019-03-28T03:05:58.255Z,73.25
2019-03-28T03:08:03.624Z,55.30
2019-03-28T03:10:09.389Z,52.73
2019-03-28T03:12:14.696Z,49.55
2019-03-28T03:14:18.840Z,47.43
2019-03-28T03:16:23.061Z,51.30
2019-03-28T03:18:27.165Z,48.33
2019-03-28T03:20:32.360Z,45.65
2019-03-28T03:22:36.756Z,48.00
2019-03-28T03:24:40.927Z,43.73
2019-03-28T03:26:46.256Z,52.17
2019-03-28T03:28:50.372Z,51.13
2019-03-28T03:30:54.490Z,47.23
2019-03-28T03:32:58.702Z,55.80
2019-03-28T03:35:02.911Z,63.83
2019-03-28T03:37:07.010Z,57.27
2019-03-28T03:39:10.854Z,53.13
2019-03-28T03:41:16.923Z,63.87
2019-03-28T03:43:20.771Z,56.80
2019-03-28T03:45:26.539Z,51.18
2019-03-28T03:47:30.364Z,51.98
2019-03-28T03:49:34.550Z,49.53
2019-03-28T03:51:38.769Z,51.18
2019-03-28T03:53:42.972Z,56.83
2019-03-28T03:55:46.797Z,45.60
2019-03-28T03:57:51.777Z,49.13
2019-03-28T03:59:56.846Z,49.70
2019-03-28T04:02:01.045Z,53.63
2019-03-28T04:04:04.857Z,55.03
2019-03-28T04:06:09.075Z,54.50
2019-03-28T04:08:13.272Z,57.17
2019-03-28T04:10:17.509Z,54.73
2019-03-28T04:12:21.321Z,53.52
2019-03-28T04:14:25.504Z,54.83
2019-03-28T04:16:29.714Z,49.42
2019-03-28T04:18:33.845Z,44.38
2019-03-28T04:20:40.912Z,51.28
2019-03-28T04:22:46.682Z,52.33
2019-03-28T04:24:50.515Z,61.20
2019-03-28T04:26:54.680Z,55.65
2019-03-28T04:28:58.883Z,56.53
2019-03-28T04:31:03.025Z,52.20
2019-03-28T04:33:07.206Z,56.37
2019-03-28T04:35:11.421Z,50.67
2019-03-28T04:37:15.280Z,49.67
2019-03-28T04:39:19.446Z,60.08
2019-03-28T04:41:23.266Z,54.42
2019-03-28T04:43:29.514Z,57.62
2019-03-28T04:45:35.348Z,55.63
2019-03-28T04:47:43.845Z,57.95
2019-03-28T04:49:48.073Z,62.73
2019-03-28T04:51:52.282Z,57.17
2019-03-28T04:53:56.599Z,59.65
2019-03-28T04:56:00.816Z,60.43
2019-03-28T04:58:04.776Z,65.52
2019-03-28T05:00:10.597Z,61.08
2019-03-28T05:02:14.779Z,67.08
2019-03-28T05:04:21.204Z,60.83
2019-03-28T05:06:25.166Z,70.10
2019-03-28T05:08:29.363Z,62.75
2019-03-28T05:10:33.481Z,63.42
2019-03-28T05:12:37.586Z,64.05
2019-03-28T05:14:41.806Z,61.08
2019-03-28T05:16:46.014Z,53.68
2019-03-28T05:18:50.228Z,60.95
2019-03-28T05:20:54.338Z,55.67
2019-03-28T05:22:58.548Z,60.40
2019-03-28T05:25:02.665Z,65.05
2019-03-28T05:27:07.339Z,58.78
2019-03-28T05:29:11.596Z,65.62
2019-03-28T05:31:15.728Z,60.28
2019-03-28T05:33:19.552Z,57.05
2019-03-28T05:35:23.717Z,53.13
2019-03-28T05:37:27.828Z,50.50
2019-03-28T05:39:32.523Z,53.65
2019-03-28T05:41:36.671Z,53.13
2019-03-28T05:43:45.314Z,52.53
2019-03-28T05:45:48.173Z,49.03
2019-03-28T05:47:51.998Z,51.02
2019-03-28T05:49:56.670Z,53.02
2019-03-28T05:52:00.312Z,52.85
2019-03-28T05:54:04.253Z,52.62
2019-03-28T05:56:08.410Z,48.30
2019-03-28T05:58:14.156Z,51.98
2019-03-28T06:00:18.361Z,40.92
2019-03-28T06:02:22.482Z,50.23
2019-03-28T06:04:26.566Z,52.75
2019-03-28T06:06:30.692Z,46.53
2019-03-28T06:08:34.830Z,41.50
2019-03-28T06:10:39.026Z,41.55
2019-03-28T06:12:42.856Z,39.63
2019-03-28T06:14:47.034Z,47.08
2019-03-28T06:16:51.254Z,44.65
2019-03-28T06:18:55.084Z,41.68
2019-03-28T06:20:59.615Z,38.67
2019-03-28T06:23:03.786Z,43.17
2019-03-28T06:25:08.111Z,40.67
2019-03-28T06:27:12.316Z,41.77
2019-03-28T06:29:23.814Z,39.67
2019-03-28T06:31:22.271Z,36.85
2019-03-28T06:33:26.386Z,41.73
2019-03-28T06:35:30.496Z,38.13
2019-03-28T06:37:34.341Z,34.08
2019-03-28T06:39:38.190Z,35.40
2019-03-28T06:41:44.345Z,41.95
2019-03-28T06:43:48.171Z,36.73
2019-03-28T06:45:52.314Z,36.60
2019-03-28T06:47:56.482Z,34.43
2019-03-28T06:50:00.972Z,35.92
2019-03-28T06:52:05.220Z,39.03
2019-03-28T06:54:09.439Z,52.45
2019-03-28T06:56:13.544Z,60.70
2019-03-28T06:58:17.673Z,52.45
2019-03-28T07:00:21.860Z,57.73
2019-03-28T07:02:25.975Z,61.98
2019-03-28T07:04:30.327Z,57.23
2019-03-28T07:06:34.633Z,66.05
2019-03-28T07:08:38.446Z,61.13
2019-03-28T07:10:42.636Z,60.23
2019-03-28T07:12:46.727Z,53.42
2019-03-28T07:14:50.570Z,47.17
2019-03-28T07:16:54.743Z,50.08
2019-03-28T07:18:59.436Z,56.00
2019-03-28T07:21:03.596Z,54.77
2019-03-28T07:23:07.807Z,59.00
2019-03-28T07:25:12.689Z,48.68
2019-03-28T07:27:17.300Z,53.68
2019-03-28T07:29:21.564Z,58.83
2019-03-28T07:31:25.767Z,55.78
2019-03-28T07:33:29.984Z,58.87
2019-03-28T07:35:33.834Z,58.50
2019-03-28T07:37:38.600Z,56.13
2019-03-28T07:39:42.940Z,49.73
2019-03-28T07:41:46.771Z,54.65
2019-03-28T07:43:50.584Z,53.02
2019-03-28T07:45:54.746Z,56.75
2019-03-28T07:47:58.971Z,49.63
2019-03-28T07:50:05.505Z,54.45
2019-03-28T07:52:09.653Z,54.35
2019-03-28T07:54:13.615Z,55.92
2019-03-28T07:56:17.419Z,56.63
2019-03-28T07:58:21.549Z,52.90
2019-03-28T08:00:25.363Z,55.35
2019-03-28T08:02:29.465Z,53.87
2019-03-28T08:04:33.741Z,55.10
2019-03-28T08:06:49.124Z,51.30
2019-03-28T08:08:44.350Z,60.10
2019-03-28T08:10:48.590Z,53.68
2019-03-28T08:12:52.986Z,52.98
2019-03-28T08:14:57.117Z,49.25
2019-03-28T08:17:00.971Z,50.78
2019-03-28T08:19:07.888Z,51.18
2019-03-28T08:21:11.186Z,46.88
2019-03-28T08:23:15.407Z,52.98
2019-03-28T08:25:19.238Z,51.80
2019-03-28T08:27:23.411Z,48.08
2019-03-28T08:29:27.289Z,55.08
2019-03-28T08:31:31.519Z,56.20
2019-03-28T08:33:38.603Z,53.13
2019-03-28T08:35:43.227Z,52.65
2019-03-28T08:37:47.433Z,50.33
2019-03-28T08:39:51.649Z,49.35
2019-03-28T08:41:55.887Z,50.38
2019-03-28T08:44:02.190Z,51.30
2019-03-28T08:46:08.751Z,46.90
2019-03-28T08:48:14.241Z,47.70
2019-03-28T08:50:18.141Z,46.70
2019-03-28T08:52:21.685Z,42.37
2019-03-28T08:54:25.231Z,39.17
2019-03-28T08:56:28.759Z,40.80
2019-03-28T08:58:32.638Z,41.10
2019-03-28T09:00:51.508Z,42.70
2019-03-28T09:02:45.265Z,39.87
2019-03-28T09:04:51.337Z,41.40
2019-03-28T09:06:54.081Z,38.27
2019-03-28T09:08:57.684Z,35.10
2019-03-28T09:11:01.614Z,36.23
2019-03-28T09:13:05.702Z,37.17
2019-03-28T09:15:10.065Z,33.57
2019-03-28T09:17:13.599Z,34.90
2019-03-28T09:19:17.441Z,29.07
2019-03-28T09:21:21.332Z,31.30
2019-03-28T09:23:24.865Z,27.40
2019-03-28T09:25:28.728Z,25.00
2019-03-28T09:27:32.635Z,23.50
2019-03-28T09:29:36.551Z,20.70
2019-03-28T09:31:40.491Z,17.10
2019-03-28T09:33:44.356Z,17.20
2019-03-28T09:35:48.277Z,16.40
2019-03-28T09:37:51.775Z,19.13
2019-03-28T09:39:55.338Z,21.90
2019-03-28T09:41:58.885Z,17.50
2019-03-28T09:44:05.981Z,19.57
2019-03-28T09:46:09.927Z,22.27
2019-03-28T09:48:13.848Z,22.20
2019-03-28T09:50:17.745Z,17.27
2019-03-28T09:52:21.309Z,22.27
2019-03-28T09:54:25.165Z,21.33
2019-03-28T09:56:29.061Z,18.30
2019-03-28T09:58:33.954Z,19.33
2019-03-28T10:00:37.921Z,16.50
2019-03-28T10:02:44.068Z,16.93
2019-03-28T10:04:47.080Z,16.20
2019-03-28T10:06:52.054Z,18.53
2019-03-28T10:08:55.973Z,16.30
2019-03-28T10:10:59.893Z,14.47
2019-03-28T10:13:03.434Z,14.97
2019-03-28T10:15:08.286Z,20.27
2019-03-28T10:17:11.828Z,18.33
2019-03-28T10:19:15.378Z,22.00
2019-03-28T10:21:19.184Z,19.23
2019-03-28T10:23:23.097Z,17.77
2019-03-28T10:25:27.021Z,16.60
2019-03-28T10:27:30.917Z,14.70
2019-03-28T10:29:34.471Z,18.57
2019-03-28T10:31:38.400Z,19.90
2019-03-28T10:33:42.637Z,15.53
2019-03-28T10:35:46.635Z,15.17
2019-03-28T10:37:50.547Z,17.73
2019-03-28T10:39:54.440Z,21.53
2019-03-28T10:41:58.353Z,20.13
2019-03-28T10:44:02.258Z,17.57
2019-03-28T10:46:06.194Z,23.27
2019-03-28T10:48:09.729Z,19.80
2019-03-28T10:50:13.671Z,18.60
2019-03-28T10:52:17.561Z,20.37
2019-03-28T10:54:21.470Z,22.33
2019-03-28T10:56:25.295Z,22.43
2019-03-28T10:58:29.285Z,24.53
2019-03-28T11:00:33.499Z,23.50
2019-03-28T11:02:38.766Z,22.40
2019-03-28T11:04:42.843Z,17.20
2019-03-28T11:06:46.379Z,18.90
2019-03-28T11:08:50.248Z,17.77
2019-03-28T11:10:53.801Z,19.13
2019-03-28T11:12:58.736Z,19.30
2019-03-28T11:15:02.572Z,18.93
2019-03-28T11:17:06.179Z,20.53
2019-03-28T11:19:09.715Z,21.70
2019-03-28T11:21:13.677Z,20.03
2019-03-28T11:23:17.467Z,16.83
2019-03-28T11:25:21.005Z,21.10
2019-03-28T11:27:24.891Z,16.70
2019-03-28T11:29:28.778Z,16.07
2019-03-28T11:31:45.282Z,15.43
2019-03-28T11:33:38.247Z,18.40
2019-03-28T11:35:42.160Z,17.87
2019-03-28T11:37:45.676Z,17.43
2019-03-28T11:39:49.561Z,17.13
2019-03-28T11:41:53.450Z,16.40
2019-03-28T11:43:56.989Z,14.77
2019-03-28T11:46:00.594Z,16.93
2019-03-28T11:48:04.126Z,16.03
2019-03-28T11:50:09.857Z,17.97
2019-03-28T11:52:13.661Z,13.93
2019-03-28T11:54:17.513Z,15.27
2019-03-28T11:56:21.423Z,16.87
2019-03-28T11:58:24.962Z,18.83
2019-03-28T12:00:29.656Z,15.63
2019-03-28T12:02:33.723Z,16.83
2019-03-28T12:04:38.853Z,18.43
2019-03-28T12:06:42.765Z,19.10
2019-03-28T12:08:46.690Z,21.53
2019-03-28T12:10:50.208Z,21.93
2019-03-28T12:12:55.204Z,19.93
2019-03-28T12:15:01.047Z,17.27
2019-03-28T12:17:04.858Z,18.60
2019-03-28T12:19:08.774Z,17.93
2019-03-28T12:21:12.661Z,22.90
2019-03-28T12:23:16.185Z,22.47
2019-03-28T12:25:19.727Z,19.37
2019-03-28T12:27:23.559Z,22.00
2019-03-28T12:29:28.849Z,21.93
2019-03-28T12:31:33.417Z,18.77
2019-03-28T12:33:37.328Z,15.53
2019-03-28T12:35:41.245Z,16.80
2019-03-28T12:37:45.062Z,20.63
2019-03-28T12:39:51.247Z,18.63
2019-03-28T12:41:55.105Z,16.97
2019-03-28T12:43:59.000Z,15.50
2019-03-28T12:46:02.919Z,17.43
2019-03-28T12:48:06.821Z,17.10
2019-03-28T12:50:12.081Z,15.67
2019-03-28T12:52:18.516Z,15.33
2019-03-28T12:54:22.523Z,12.57
2019-03-28T12:56:26.606Z,11.87
2019-03-28T12:58:30.465Z,12.97
2019-03-28T13:00:35.592Z,13.97
2019-03-28T13:02:39.200Z,15.17
2019-03-28T13:04:43.093Z,10.77
2019-03-28T13:06:46.975Z,12.47
2019-03-28T13:08:50.887Z,11.90
2019-03-28T13:10:54.800Z,12.60
2019-03-28T13:12:58.695Z,19.37
2019-03-28T13:15:02.610Z,14.57
2019-03-28T13:17:06.522Z,14.53
2019-03-28T13:19:10.047Z,13.23
2019-03-28T13:21:14.304Z,13.53
2019-03-28T13:23:18.241Z,12.70
2019-03-28T13:25:21.754Z,10.70
2019-03-28T13:27:25.624Z,11.53
2019-03-28T13:29:29.518Z,11.57
2019-03-28T13:31:33.436Z,12.80
2019-03-28T13:33:37.345Z,11.50
2019-03-28T13:35:40.892Z,12.43
2019-03-28T13:37:44.449Z,14.07
2019-03-28T13:39:48.340Z,13.37
2019-03-28T13:41:52.255Z,10.57
2019-03-28T13:43:56.683Z,11.23
2019-03-28T13:46:00.566Z,10.17
2019-03-28T13:48:04.164Z,9.20
2019-03-28T13:50:09.117Z,12.27
2019-03-28T13:52:13.004Z,9.63
2019-03-28T13:54:16.914Z,9.63
2019-03-28T13:56:20.728Z,10.30
2019-03-28T13:58:24.264Z,10.13
2019-03-28T14:00:32.580Z,12.17
2019-03-28T14:02:36.793Z,8.70
2019-03-28T14:04:40.652Z,6.77
2019-03-28T14:06:44.178Z,8.63
2019-03-28T14:08:47.732Z,12.60
2019-03-28T14:10:51.632Z,10.03
2019-03-28T14:12:55.548Z,8.67
2019-03-28T14:14:59.445Z,10.23
2019-03-28T14:17:03.271Z,10.70
2019-03-28T14:19:09.506Z,9.77
2019-03-28T14:21:13.047Z,7.93
2019-03-28T14:23:16.900Z,11.20
2019-03-28T14:25:20.827Z,9.93
2019-03-28T14:27:24.724Z,10.63
2019-03-28T14:29:30.045Z,10.37
2019-03-28T14:31:34.168Z,9.43
2019-03-28T14:33:38.178Z,9.80
2019-03-28T14:35:41.708Z,9.43
2019-03-28T14:37:45.576Z,8.90
2019-03-28T14:39:51.020Z,10.73
2019-03-28T14:41:54.927Z,9.83
2019-03-28T14:43:58.727Z,8.77
2019-03-28T14:46:02.646Z,8.80
2019-03-28T14:48:07.025Z,11.50
2019-03-28T14:50:11.573Z,11.50
2019-03-28T14:52:15.116Z,10.27
2019-03-28T14:54:19.562Z,10.50
2019-03-28T14:56:24.897Z,11.27
2019-03-28T14:58:29.837Z,10.03
2019-03-28T15:00:53.890Z,9.13
2019-03-28T15:02:57.838Z,9.63
2019-03-28T15:05:01.759Z,11.63
2019-03-28T15:07:07.306Z,11.37
2019-03-28T15:09:11.199Z,9.77
2019-03-28T15:11:15.106Z,14.73
2019-03-28T15:13:19.430Z,10.53
2019-03-28T15:15:23.329Z,9.43
2019-03-28T15:17:27.975Z,9.63
2019-03-28T15:19:31.573Z,9.10
2019-03-28T15:21:35.114Z,9.30
2019-03-28T15:23:38.626Z,9.63
2019-03-28T15:25:43.357Z,9.90
2019-03-28T15:27:47.272Z,10.37
2019-03-28T15:29:50.785Z,9.83
2019-03-28T15:31:54.660Z,16.53
2019-03-28T15:34:00.118Z,12.50
2019-03-28T15:36:04.024Z,10.80
2019-03-28T15:38:08.026Z,12.00
2019-03-28T15:40:11.933Z,11.93
2019-03-28T15:42:15.902Z,10.53
2019-03-28T15:44:19.370Z,10.73
2019-03-28T15:46:23.244Z,13.97
2019-03-28T15:48:27.145Z,14.30
2019-03-28T15:50:30.679Z,12.17
2019-03-28T15:52:34.516Z,12.60
2019-03-28T15:54:38.040Z,13.83
2019-03-28T15:56:41.952Z,10.47
2019-03-28T15:58:45.853Z,16.40
2019-03-28T16:00:49.747Z,20.67
2019-03-28T16:02:53.280Z,20.60
2019-03-28T16:04:58.683Z,14.80
2019-03-28T16:07:02.603Z,16.60
2019-03-28T16:09:07.635Z,17.67
2019-03-28T16:11:11.841Z,47.67
2019-03-28T16:13:15.949Z,78.03
2019-03-28T16:15:19.856Z,21.43
2019-03-28T16:17:23.771Z,10.80
2019-03-28T16:19:27.651Z,11.60
2019-03-28T16:21:32.731Z,15.80
2019-03-28T16:23:36.547Z,17.40
2019-03-28T16:25:40.395Z,12.67
2019-03-28T16:27:46.649Z,22.97
2019-03-28T16:29:50.200Z,10.97
2019-03-28T16:31:53.735Z,11.13
2019-03-28T16:34:06.799Z,9.10
2019-03-28T16:36:03.301Z,8.57
2019-03-28T16:38:07.211Z,11.20
2019-03-28T16:40:11.529Z,8.60
2019-03-28T16:42:15.841Z,7.70
2019-03-28T16:44:19.841Z,8.20
2019-03-28T16:46:23.757Z,7.43
2019-03-28T16:48:27.657Z,8.40
2019-03-28T16:50:31.389Z,8.63
2019-03-28T16:52:35.081Z,62.83
2019-03-28T16:54:38.985Z,26.50
2019-03-28T16:56:42.877Z,122.00
2019-03-28T16:58:46.777Z,25.40
2019-03-28T17:00:50.686Z,25.17
2019-03-28T17:02:56.358Z,9.47
2019-03-28T17:05:00.406Z,109.10
2019-03-28T17:07:04.755Z,25.20
2019-03-28T17:09:09.582Z,10.93
2019-03-28T17:11:13.388Z,16.20
2019-03-28T17:13:18.923Z,25.72
2019-03-28T17:15:25.740Z,6.73
2019-03-28T17:17:28.105Z,4.43
2019-03-28T17:19:31.628Z,7.93
2019-03-28T17:21:35.166Z,17.07
2019-03-28T17:23:39.059Z,9.37
2019-03-28T17:25:42.672Z,5.77
2019-03-28T17:27:46.717Z,6.13
2019-03-28T17:29:51.516Z,10.07
2019-03-28T17:31:55.404Z,8.50
2019-03-28T17:33:59.327Z,8.07
2019-03-28T17:36:14.721Z,10.87
2019-03-28T17:38:32.376Z,9.43
2019-03-28T17:40:45.018Z,8.00
2019-03-28T17:43:07.032Z,10.10
2019-03-28T17:45:27.193Z,9.20
2019-03-28T17:47:31.758Z,13.17
2019-03-28T17:49:36.269Z,10.93
2019-03-28T17:51:40.603Z,11.20
2019-03-28T17:53:44.121Z,10.00
2019-03-28T17:55:48.018Z,12.63
2019-03-28T17:57:52.647Z,13.43
2019-03-28T17:59:58.595Z,11.17
2019-03-28T18:02:02.472Z,8.20
2019-03-28T18:04:06.527Z,9.33
2019-03-28T18:06:10.280Z,10.83
2019-03-28T18:08:14.182Z,8.37
2019-03-28T18:10:18.195Z,9.27
2019-03-28T18:12:22.005Z,9.87
2019-03-28T18:14:25.577Z,12.13
2019-03-28T18:16:29.134Z,12.47
2019-03-28T18:18:32.629Z,10.70
2019-03-28T18:20:36.526Z,9.23
2019-03-28T18:22:40.993Z,12.10
2019-03-28T18:24:44.540Z,11.67
2019-03-28T18:26:48.420Z,12.77
2019-03-28T18:28:51.931Z,9.60
2019-03-28T18:30:55.840Z,11.63
2019-03-28T18:32:59.367Z,12.70
2019-03-28T18:35:05.814Z,14.57
2019-03-28T18:37:10.831Z,10.70
2019-03-28T18:39:14.519Z,12.00
2019-03-28T18:41:18.428Z,184.50
2019-03-28T18:43:22.337Z,28.10
2019-03-28T18:45:26.239Z,12.73
2019-03-28T18:47:30.352Z,12.50
2019-03-28T18:49:34.273Z,12.67
2019-03-28T18:51:38.477Z,43.08
2019-03-28T18:53:42.682Z,12.93
2019-03-28T18:55:46.587Z,10.03
2019-03-28T18:57:50.110Z,12.50
2019-03-28T18:59:54.285Z,10.58
2019-03-28T19:01:58.503Z,8.65
2019-03-28T19:04:03.981Z,13.80
2019-03-28T19:06:08.182Z,13.20
2019-03-28T19:08:12.015Z,15.35
2019-03-28T19:10:16.288Z,12.85
2019-03-28T19:12:21.125Z,11.10
2019-03-28T19:14:25.974Z,10.20
2019-03-28T19:16:30.139Z,10.55
2019-03-28T19:18:34.364Z,12.53
2019-03-28T19:20:38.567Z,10.40
2019-03-28T19:22:42.814Z,37.10
2019-03-28T19:24:46.809Z,15.23
2019-03-28T19:26:51.036Z,10.18
2019-03-28T19:28:56.300Z,13.22
2019-03-28T19:31:00.559Z,12.90
2019-03-28T19:33:06.856Z,10.28
2019-03-28T19:35:10.821Z,12.30
2019-03-28T19:37:15.141Z,11.63
2019-03-28T19:39:32.984Z,10.65
2019-03-28T19:41:37.891Z,12.07
2019-03-28T19:43:42.839Z,12.78
2019-03-28T19:45:46.673Z,13.62
2019-03-28T19:47:50.936Z,11.20
2019-03-28T19:49:54.765Z,12.93
2019-03-28T19:51:59.898Z,13.70
2019-03-28T19:54:04.347Z,14.50
2019-03-28T19:56:09.505Z,11.30
2019-03-28T19:58:16.815Z,13.53
2019-03-28T20:00:21.056Z,10.77
2019-03-28T20:02:24.883Z,11.83
2019-03-28T20:04:29.037Z,9.95
2019-03-28T20:06:33.160Z,14.83
2019-03-28T20:08:37.273Z,13.55
2019-03-28T20:10:41.477Z,10.78
2019-03-28T20:12:47.511Z,9.83
2019-03-28T20:14:51.172Z,10.15
2019-03-28T20:16:55.333Z,10.35
2019-03-28T20:19:02.110Z,14.87
2019-03-28T20:21:06.300Z,8.30
2019-03-28T20:23:12.379Z,12.53
2019-03-28T20:25:16.503Z,10.10
2019-03-28T20:27:21.437Z,14.73
2019-03-28T20:29:25.655Z,10.45
2019-03-28T20:31:29.849Z,10.32
2019-03-28T20:33:33.697Z,10.20
2019-03-28T20:35:38.580Z,9.55
2019-03-28T20:37:44.739Z,13.83
2019-03-28T20:39:49.059Z,13.20
2019-03-28T20:41:54.282Z,17.48
2019-03-28T20:43:58.135Z,13.48
2019-03-28T20:46:02.895Z,13.10
2019-03-28T20:48:07.242Z,12.18
2019-03-28T20:50:11.825Z,14.07
2019-03-28T20:52:15.970Z,15.08
2019-03-28T20:54:20.078Z,13.78
2019-03-28T20:56:24.015Z,10.93
2019-03-28T20:58:28.825Z,16.05
2019-03-28T21:00:39.380Z,11.90
2019-03-28T21:02:43.578Z,15.23
2019-03-28T21:04:49.756Z,13.55
2019-03-28T21:06:54.049Z,13.03
2019-03-28T21:08:57.979Z,16.05
2019-03-28T21:11:01.836Z,16.00
2019-03-28T21:13:06.086Z,17.02
2019-03-28T21:15:10.392Z,15.80
2019-03-28T21:17:16.652Z,19.17
2019-03-28T21:19:20.507Z,13.80
2019-03-28T21:21:24.344Z,16.77
2019-03-28T21:23:28.193Z,15.60
2019-03-28T21:25:32.397Z,17.65
2019-03-28T21:27:36.590Z,16.75
2019-03-28T21:29:48.684Z,20.90
2019-03-28T21:31:50.171Z,23.73
2019-03-28T21:33:55.037Z,19.20
2019-03-28T21:35:59.960Z,17.90
2019-03-28T21:38:04.107Z,19.40
2019-03-28T21:40:08.420Z,19.17
2019-03-28T21:42:12.636Z,18.62
2019-03-28T21:44:16.474Z,19.82
2019-03-28T21:46:20.318Z,18.98
2019-03-28T21:48:26.195Z,21.60
2019-03-28T21:50:30.408Z,19.40
2019-03-28T21:52:34.513Z,19.67
2019-03-28T21:54:38.724Z,23.25
2019-03-28T21:56:42.563Z,22.37
2019-03-28T21:58:46.753Z,26.15
2019-03-28T22:00:50.570Z,21.15
2019-03-28T22:02:54.966Z,21.48
2019-03-28T22:04:59.179Z,23.20
2019-03-28T22:07:06.570Z,23.65
2019-03-28T22:09:10.676Z,53.15
2019-03-28T22:11:14.891Z,26.85
2019-03-28T22:13:18.712Z,25.32
2019-03-28T22:15:24.354Z,21.20
2019-03-28T22:17:28.555Z,22.30
2019-03-28T22:19:32.662Z,23.83
2019-03-28T22:21:36.526Z,22.80
2019-03-28T22:23:40.680Z,22.50
2019-03-28T22:25:44.794Z,23.90
2019-03-28T22:27:48.634Z,25.27
2019-03-28T22:29:52.804Z,25.25
2019-03-28T22:31:56.970Z,24.85
2019-03-28T22:34:01.441Z,33.85
2019-03-28T22:36:05.302Z,25.00
2019-03-28T22:38:09.240Z,31.27
2019-03-28T22:40:14.988Z,26.00
2019-03-28T22:42:19.211Z,23.32
2019-03-28T22:44:24.808Z,28.83
2019-03-28T22:46:29.170Z,26.20
2019-03-28T22:48:33.381Z,27.02
2019-03-28T22:50:40.881Z,29.00
2019-03-28T22:52:45.069Z,24.72
2019-03-28T22:54:48.946Z,28.40
2019-03-28T22:56:53.096Z,27.20
2019-03-28T22:58:56.927Z,28.20
2019-03-28T23:01:01.524Z,29.05
2019-03-28T23:03:05.748Z,26.87
2019-03-28T23:05:10.572Z,21.75
2019-03-28T23:07:14.777Z,24.55
2019-03-28T23:09:18.981Z,21.68
2019-03-28T23:11:23.399Z,22.77
2019-03-28T23:13:27.614Z,28.87
2019-03-28T23:15:31.819Z,24.37
2019-03-28T23:17:36.040Z,27.65
2019-03-28T23:19:40.260Z,26.87
2019-03-28T23:21:44.104Z,24.43
2019-03-28T23:23:48.255Z,21.12
2019-03-28T23:25:54.811Z,23.80
2019-03-28T23:27:58.943Z,24.32
2019-03-28T23:30:03.287Z,25.17
2019-03-28T23:32:07.375Z,25.27
2019-03-28T23:34:11.206Z,24.72
2019-03-28T23:36:15.046Z,26.10
2019-03-28T23:38:19.899Z,24.72
2019-03-28T23:40:26.345Z,23.60
2019-03-28T23:42:30.184Z,26.35
2019-03-28T23:44:34.300Z,25.25
2019-03-28T23:46:38.156Z,27.90
2019-03-28T23:48:42.309Z,26.48
2019-03-28T23:50:46.165Z,31.05
2019-03-28T23:52:50.026Z,24.07
2019-03-28T23:54:54.641Z,26.30
2019-03-28T23:56:58.850Z,26.30
2019-03-28T23:59:03.048Z,27.40
